NameSizeLast modified
Parent directory/⇩ 4.64 GB(.zip of contents)
[RSKP001] SPaCeyAlieN vs MaSScor3 & D.E.M. - RSK-Type-Of-Games-You-Play/⇩ 70 MB2017-03-29 09:14:47
[RSKP002] Various - THE VaAGuHCoR3 EP/⇩ 31 MB2017-03-29 09:14:50
[RSKP003] Various - RSK Released Psyco KiLLeR Minds/⇩ 108 MB2017-03-29 09:15:00
[RSKP004] Various - The Extreme Core Collection Part 1/⇩ 101 MB2017-03-29 09:15:10
[RSKP005] Various - The Extreme Core Collection Part 2/⇩ 96 MB2017-03-29 09:15:20
[RSKP006] Various - Infernal Core/⇩ 116 MB2017-03-29 09:15:32
[RSKP007] Various - Born 2 Be A Killer Part 1/⇩ 144 MB2017-03-29 09:15:45
[RSKP008] SPaCeyAlieN - VaAGuHCoR3 And Speedcore World Wide 4 Life/⇩ 43 MB2017-03-29 09:15:49
[RSKP009] Various - The Extreme Core Collection Part 3/⇩ 173 MB2017-03-29 09:16:05
[RSKP010] Pain Generate Sperm - A God, A Child And A Whore/⇩ 44 MB2017-03-29 09:16:09
[RSKP011] Various - Born 2 Be A Killer Part 2/⇩ 256 MB2017-03-29 09:16:32
[RSKP012] Various - The Underground Extreme Core Collection Part 1/⇩ 213 MB2017-03-29 09:16:51
[RSKP013] Various - Born 2 Be A Killer Part 3/⇩ 136 MB2017-03-29 09:17:03
[RSKP014] SPaCeyALieN - 10 Years Of Underground Extreme Core Productions/⇩ 101 MB2017-03-29 09:17:12
[RSKP015] SoLiXxX - D&B And Breaks Projects/⇩ 69 MB2017-03-29 09:17:18
[RSKP016] The HardWarist - Enforcing Tribecore EP/⇩ 62 MB2017-03-29 09:17:23
[RSKP017] Hersenerosie - Lobotomy EP/⇩ 17 MB2017-03-29 09:17:25
[RSKP018] Various - The VaAGuHCoR3 EP Part 2/⇩ 56 MB2017-03-29 09:17:30
[RSKP019] DJ Miss Labrano & SPaCeyALieN - Swiss Vs The Dutch The Underground Extreme Core Collection Special Edit EP/⇩ 72 MB2017-03-29 09:17:36
[RSKP020] Mental D-struction - Extrapolation²/⇩ 71 MB2017-03-29 09:17:42
[RSKP021] Loffciamcore - 69 Lat Na Polskiej Scenie Dissko/⇩ 105 MB2017-03-29 09:17:51
[RSKP022] TommY RuleZ - Extreeme Archives/⇩ 122 MB2017-03-29 09:18:02
[RSKP023] Various - The Extreme Core Collection Part-4 (10,000% Underground Extreme Core)/⇩ 294 MB2017-03-29 09:18:28
[RSKP024] Underground Violence - Shadowcore EP/⇩ 24 MB2017-03-29 09:18:30
[RSKP025] Superius - PWND/⇩ 209 MB2017-03-29 09:18:49
[RSKP026] Various - Tribute 3 Years Of RSKP/⇩ 594 MB2017-03-29 09:19:42
[RSKP027] Wankernicht Team Project - Sick Of It All EP Part 1/⇩ 55 MB2017-03-29 09:19:47
[RSKP028] Wankernicht Team Project Sick Of It ALL Part 2/⇩ 37 MB2017-03-29 09:19:50
[RSKP029] SPaCeyALieN - Pilluh Pep & Ketamine The Remixxes EP/⇩ 54 MB2017-03-29 09:19:55
[RSKP030] SPaCeyALieN And Rico.B - Kenkur Jantjuh Telefoon Kapot/⇩ 167 MB2017-03-29 09:20:09
[RSKP031] Various - The ExtremeCore Collection Part-5 (100,000% Underground Extreme Core)/⇩ 256 MB2017-03-29 09:20:31
[RSKP032] Hersenerosie - Pattern Of Disaster EP/⇩ 41 MB2017-03-29 09:20:35
[RSKP033] REAKTOR-TH - Norwegian Terrorcore Vol II/⇩ 34 MB2017-03-29 09:20:38
[RSKP034] IMPLΛNT - Fleshpound EP/⇩ 25 MB2017-03-29 09:20:40
[RSKP035] SPaCeyALieN - Back For Trouble EP/⇩ 57 MB2017-03-29 09:20:46
[RSKP036] Brass Knuckle Bully - Disarming The Death EP/⇩ 25 MB2017-03-29 09:20:48
[RSKP037] C-Hunter - I am Watching You EP/⇩ 49 MB2017-03-29 09:20:53
[RSKP038] REAKTOR-TH - Insane Madness EP/⇩ 33 MB2017-03-29 09:20:57
[RSKP039] Black_Death - Speedcore Holiday EP/⇩ 42 MB2017-03-29 09:21:01
[RSKP040] The ExtremeCore Collection Part 6(66) Tribute 7 years Of RSKP/⇩ 278 MB2017-03-29 09:21:26
[RSKP041] SPaCeyALieN - The Forgotten TracksZ EP/⇩ 67 MB2017-03-29 09:21:32
[RSKP042] Cerebral Bomb - The Greatest Shits EP/⇩ 69 MB2017-03-29 09:21:38
[RSKP043] Cuntcutter - They Fuck In The Toilets In Clubs With Selection/⇩ 33 MB2017-03-29 09:21:41
[RSKP044] L31cH3 & NIBOLAL - Hirnfraese ep/⇩ 53 MB2017-03-29 09:21:46
[RSKPDOCU001] 1 Day With The Green Brigade Schiedam/⇩ 48 MB2017-03-29 09:21:50
notes.txt⇩ 0 KB2017-03-29 09:14:40